• Join FlightAware (Why Join?)
  • Login
  • US Flag 
11:37AM EDT


 

Airport Tracker/Info


-or-


 

Live Flight TrackerFlight Track Log ✈ FLG3861 ✈ 20-Sep-2013 ✈ KDTW - KBGM

Flight Track Log - Related Links

Times and Time Zones

All times are in EDT time to prevent confusion due to time zone crossing. See the FLG3861 flight status page for this flight to view local times or setup timezone preferences in your user account.

Time Position Orientation Groundspeed Altitude Reporting Facility
EDT Latitude Longitude Course Direction KTS MPH feet Rate Location/Type
10:11PM 42.2058 -83.3700 176° South 146 168 1,400  Level Cleveland Center
10:12PM 42.1558 -83.3656 176° South 208 239 3,000 1,740 Climbing Cleveland Center
10:12PM 42.1150 -83.3514 166° South 244 281 4,400 1,500 Climbing Cleveland Center
10:13PM 42.1056 -83.3369 131° Southeast 230 265 4,600 1,860 Climbing Cleveland Center
10:14PM 42.1083 -83.2244 88° East 291 335 7,000 2,400 Climbing Cleveland Center
10:15PM 42.1478 -83.1067 66° East 308 354 9,500 1,740 Climbing Cleveland Center
10:16PM 42.1856 -82.9958 65° Northeast 334 384 10,600 1,080 Climbing Cleveland Center
10:17PM 42.2275 -82.8681 66° East 372 428 11,800 1,320 Climbing Cleveland Center
10:18PM 42.2722 -82.7386 65° Northeast 382 440 13,400 1,320 Climbing Cleveland Center
10:19PM 42.3164 -82.6058 66° East 389 448 14,600 1,080 Climbing Cleveland Center
10:20PM 42.3597 -82.4708 66° East 392 451 15,700 1,080 Climbing Cleveland Center
10:21PM 42.3619 -82.3236 89° East 395 455 16,800 960 Climbing Cleveland Center
10:22PM 42.3558 -82.1767 93° East 392 451 17,700 1,020 Climbing Cleveland Center
10:23PM 42.3486 -82.0017 93° East 400 460 18,900 900 Climbing Cleveland Center
10:24PM 42.3414 -81.8456 94° East 409 471 19,600 540 Climbing Cleveland Center
10:25PM 42.3364 -81.6906 92° East 408 470 20,100 480 Climbing Cleveland Center
10:26PM 42.3361 -81.5289 90° East 421 484 20,600 480 Climbing Cleveland Center
10:27PM 42.3364 -81.3692 90° East 422 486 21,100 480 Climbing Cleveland Center
10:28PM 42.3361 -81.2064 90° East 427 491 21,600 480 Climbing Cleveland Center
10:29PM 42.3350 -81.0444 90° East 427 491 22,100 480 Climbing Cleveland Center
10:30PM 42.3353 -80.8831 90° East 426 490 22,600 600 Climbing Cleveland Center
10:31PM 42.3339 -80.7233 91° East 422 486 23,400 840 Climbing Cleveland Center
10:32PM 42.3347 -80.5694 90° East 410 472 24,400 780 Climbing Cleveland Center
10:33PM 42.3336 -80.4175 91° East 404 465 25,000 240 Climbing Cleveland Center
10:34PM 42.3319 -80.2611 91° East 410 472 25,000  Level Cleveland Center
10:35PM 42.3289 -80.0969 91° East 429 494 25,000  Level Cleveland Center
10:36PM 42.3264 -79.9264 91° East 441 507 25,000  Level Cleveland Center
10:37PM 42.3247 -79.7592 91° East 448 516 25,000  Level Cleveland Center
10:38PM 42.3225 -79.5906 91° East 452 520 25,000  Level Cleveland Center
10:39PM 42.3189 -79.3889 91° East 451 519 25,000  Level Cleveland Center
10:40PM 42.3164 -79.2203 91° East 451 519 25,000  Level Cleveland Center
10:41PM 42.3122 -79.0525 92° East 450 518 25,000  Level Cleveland Center
10:42PM 42.3086 -78.8869 92° East 452 520 25,000  Level Cleveland Center
10:43PM 42.3047 -78.7206 92° East 448 516 25,000  Level Cleveland Center
10:44PM 42.3011 -78.5542 92° East 446 513 25,000  Level Cleveland Center
10:45PM 42.2969 -78.3875 92° East 448 516 25,000 -420 Level Cleveland Center
10:46PM 42.2931 -78.2194 92° East 449 517 24,200 -1,140 Descending Cleveland Center
10:47PM 42.2867 -78.0117 92° East 462 532 22,700 -1,440 Descending Cleveland Center
10:48PM 42.2817 -77.8378 92° East 468 539 21,300 -1,200 Descending Cleveland Center
10:49PM 42.2764 -77.6669 92° East 464 534 20,300 -1,020 Descending Cleveland Center
10:50PM 42.2711 -77.4994 92° East 456 525 19,300 -1,020 Descending Cleveland Center
10:51PM 42.2644 -77.3344 93° East 450 518 18,300 -1,020 Descending Cleveland Center
10:52PM 42.2581 -77.1714 93° East 442 509 17,300 -840 Descending Cleveland Center
10:53PM 42.2519 -77.0322 93° East 442 509 16,800 -1,200 Descending New York Center
10:54PM 42.2475 -76.8775 92° East 428 493 15,100 -2,040 Descending New York Center
10:55PM 42.2386 -76.7200 94° East 405 466 12,800 -2,220 Descending New York Center
10:56PM 42.2328 -76.5878 93° East 377 434 10,800 -2,100 Descending New York Center
10:58PM 42.2619 -76.4539 74° East 303 349 8,100 -2,160 Descending Cleveland Center
10:59PM 42.2844 -76.3639 71° East 293 337 6,000 -2,400 Descending Cleveland Center
10:59PM 42.3039 -76.2717 74° East 290 334 4,000 -1,200 Descending New York Center
11:00PM 42.3289 -76.1839 69° East 271 312 4,000 -420 Level New York Center
11:01PM 42.3178 -76.1072 101° East 238 274 3,200 -480 Descending New York Center
11:02PM 42.2911 -76.0519 123° Southeast 190 219 3,100 -360 Descending New York Center
11:03PM 42.2550 -76.0211 148° Southeast 165 190 2,500 -480 Descending New York Center
11:04PM 42.2294 -75.9853 134° Southeast 152 175 2,200 -360 Descending New York Center